sensor_id;sensor_type;location;lat;lon;timestamp;temperature;humidity
23371;DHT22;11858;51.056;3.712;2023-04-15T00:00:07;11.30;99.90
23371;DHT22;11858;51.056;3.712;2023-04-15T00:02:33;11.30;99.90
23371;DHT22;11858;51.056;3.712;2023-04-15T00:04:58;11.30;99.90
23371;DHT22;11858;51.056;3.712;2023-04-15T00:07:24;11.30;99.90
23371;DHT22;11858;51.056;3.712;2023-04-15T00:09:50;11.30;99.90
23371;DHT22;11858;51.056;3.712;2023-04-15T00:12:19;11.30;99.90
23371;DHT22;11858;51.056;3.712;2023-04-15T00:14:46;11.40;99.90
23371;DHT22;11858;51.056;3.712;2023-04-15T00:17:12;11.40;99.90
23371;DHT22;11858;51.056;3.712;2023-04-15T00:19:37;11.40;99.90
23371;DHT22;11858;51.056;3.712;2023-04-15T00:22:03;11.30;99.90
23371;DHT22;11858;51.056;3.712;2023-04-15T00:24:29;11.30;99.90
23371;DHT22;11858;51.056;3.712;2023-04-15T00:26:56;11.30;99.90
23371;DHT22;11858;51.056;3.712;2023-04-15T00:29:22;11.30;99.90
23371;DHT22;11858;51.056;3.712;2023-04-15T00:31:48;11.30;99.90
23371;DHT22;11858;51.056;3.712;2023-04-15T00:34:14;11.40;99.90
23371;DHT22;11858;51.056;3.712;2023-04-15T00:36:39;11.50;99.90
23371;DHT22;11858;51.056;3.712;2023-04-15T00:39:05;11.40;99.90
23371;DHT22;11858;51.056;3.712;2023-04-15T00:41:31;11.40;99.90
23371;DHT22;11858;51.056;3.712;2023-04-15T00:43:59;11.40;99.90
23371;DHT22;11858;51.056;3.712;2023-04-15T00:46:26;11.40;99.90
23371;DHT22;11858;51.056;3.712;2023-04-15T00:48:53;11.40;99.90
23371;DHT22;11858;51.056;3.712;2023-04-15T00:51:19;11.30;99.90
23371;DHT22;11858;51.056;3.712;2023-04-15T00:53:45;11.20;99.90
23371;DHT22;11858;51.056;3.712;2023-04-15T00:56:11;11.10;99.90
23371;DHT22;11858;51.056;3.712;2023-04-15T00:58:37;10.90;99.90
23371;DHT22;11858;51.056;3.712;2023-04-15T01:01:03;11.00;99.90
23371;DHT22;11858;51.056;3.712;2023-04-15T01:03:29;11.10;99.90
23371;DHT22;11858;51.056;3.712;2023-04-15T01:05:55;11.10;99.90
23371;DHT22;11858;51.056;3.712;2023-04-15T01:08:30;11.10;99.90
23371;DHT22;11858;51.056;3.712;2023-04-15T01:10:56;11.20;99.90
23371;DHT22;11858;51.056;3.712;2023-04-15T01:13:23;11.20;99.90
23371;DHT22;11858;51.056;3.712;2023-04-15T01:15:50;11.10;99.90
23371;DHT22;11858;51.056;3.712;2023-04-15T01:18:16;11.00;99.90
23371;DHT22;11858;51.056;3.712;2023-04-15T01:20:43;11.00;99.90
23371;DHT22;11858;51.056;3.712;2023-04-15T01:23:09;10.90;99.90
23371;DHT22;11858;51.056;3.712;2023-04-15T01:25:35;10.90;99.90
23371;DHT22;11858;51.056;3.712;2023-04-15T01:28:02;10.90;99.90
23371;DHT22;11858;51.056;3.712;2023-04-15T01:30:27;10.90;99.90
23371;DHT22;11858;51.056;3.712;2023-04-15T01:32:54;10.70;99.90
23371;DHT22;11858;51.056;3.712;2023-04-15T01:35:19;10.80;99.90
23371;DHT22;11858;51.056;3.712;2023-04-15T01:37:46;10.80;99.90
23371;DHT22;11858;51.056;3.712;2023-04-15T01:40:12;10.70;99.90
23371;DHT22;11858;51.056;3.712;2023-04-15T01:42:38;10.60;99.90
23371;DHT22;11858;51.056;3.712;2023-04-15T01:45:04;10.60;99.90
23371;DHT22;11858;51.056;3.712;2023-04-15T01:47:31;10.50;99.90
23371;DHT22;11858;51.056;3.712;2023-04-15T01:49:58;10.50;99.90
23371;DHT22;11858;51.056;3.712;2023-04-15T01:52:23;10.40;99.90
23371;DHT22;11858;51.056;3.712;2023-04-15T01:54:49;10.40;99.90
23371;DHT22;11858;51.056;3.712;2023-04-15T01:57:15;10.40;99.90
23371;DHT22;11858;51.056;3.712;2023-04-15T01:59:41;10.40;99.90
23371;DHT22;11858;51.056;3.712;2023-04-15T02:02:07;10.40;99.90
23371;DHT22;11858;51.056;3.712;2023-04-15T02:04:33;10.40;99.90
23371;DHT22;11858;51.056;3.712;2023-04-15T02:06:59;10.30;99.90
23371;DHT22;11858;51.056;3.712;2023-04-15T02:09:25;10.30;99.90
23371;DHT22;11858;51.056;3.712;2023-04-15T02:11:51;10.30;99.90
23371;DHT22;11858;51.056;3.712;2023-04-15T02:14:18;10.30;99.90
23371;DHT22;11858;51.056;3.712;2023-04-15T02:16:43;10.30;99.90
23371;DHT22;11858;51.056;3.712;2023-04-15T02:19:09;10.20;99.90
23371;DHT22;11858;51.056;3.712;2023-04-15T02:21:35;10.20;99.90
23371;DHT22;11858;51.056;3.712;2023-04-15T02:24:01;10.20;99.90
23371;DHT22;11858;51.056;3.712;2023-04-15T02:26:27;10.20;99.90
23371;DHT22;11858;51.056;3.712;2023-04-15T02:28:53;10.30;99.90
23371;DHT22;11858;51.056;3.712;2023-04-15T02:31:19;10.20;99.90
23371;DHT22;11858;51.056;3.712;2023-04-15T02:33:46;10.10;99.90
23371;DHT22;11858;51.056;3.712;2023-04-15T02:36:12;10.10;99.90
23371;DHT22;11858;51.056;3.712;2023-04-15T02:38:38;10.00;99.90
23371;DHT22;11858;51.056;3.712;2023-04-15T02:41:07;9.90;99.90
23371;DHT22;11858;51.056;3.712;2023-04-15T02:43:33;9.90;99.90
23371;DHT22;11858;51.056;3.712;2023-04-15T02:45:58;10.00;99.90
23371;DHT22;11858;51.056;3.712;2023-04-15T02:48:24;10.00;99.90
23371;DHT22;11858;51.056;3.712;2023-04-15T02:50:50;10.00;99.90
23371;DHT22;11858;51.056;3.712;2023-04-15T02:53:16;10.00;99.90
23371;DHT22;11858;51.056;3.712;2023-04-15T02:55:42;10.00;99.90
23371;DHT22;11858;51.056;3.712;2023-04-15T02:58:07;9.90;99.90
23371;DHT22;11858;51.056;3.712;2023-04-15T03:00:33;9.80;99.90
23371;DHT22;11858;51.056;3.712;2023-04-15T03:03:02;9.80;99.90
23371;DHT22;11858;51.056;3.712;2023-04-15T03:05:28;9.80;99.90
23371;DHT22;11858;51.056;3.712;2023-04-15T03:07:54;9.80;99.90
23371;DHT22;11858;51.056;3.712;2023-04-15T03:10:20;9.90;99.90
23371;DHT22;11858;51.056;3.712;2023-04-15T03:12:46;9.90;99.90
23371;DHT22;11858;51.056;3.712;2023-04-15T03:15:12;9.90;99.90
23371;DHT22;11858;51.056;3.712;2023-04-15T03:17:38;9.90;99.90
23371;DHT22;11858;51.056;3.712;2023-04-15T03:20:06;9.90;99.90
23371;DHT22;11858;51.056;3.712;2023-04-15T03:22:33;9.90;99.90
23371;DHT22;11858;51.056;3.712;2023-04-15T03:24:59;9.90;99.90
23371;DHT22;11858;51.056;3.712;2023-04-15T03:27:25;9.90;99.90
23371;DHT22;11858;51.056;3.712;2023-04-15T03:29:50;9.90;99.90
23371;DHT22;11858;51.056;3.712;2023-04-15T03:32:17;9.90;99.90
23371;DHT22;11858;51.056;3.712;2023-04-15T03:34:42;9.90;99.90
23371;DHT22;11858;51.056;3.712;2023-04-15T03:37:08;9.90;99.90
23371;DHT22;11858;51.056;3.712;2023-04-15T03:39:34;10.00;99.90
23371;DHT22;11858;51.056;3.712;2023-04-15T03:42:00;10.00;99.90
23371;DHT22;11858;51.056;3.712;2023-04-15T03:44:26;10.00;99.90
23371;DHT22;11858;51.056;3.712;2023-04-15T03:46:52;10.00;99.90
23371;DHT22;11858;51.056;3.712;2023-04-15T03:49:18;9.90;99.90
23371;DHT22;11858;51.056;3.712;2023-04-15T03:51:44;9.90;99.90
23371;DHT22;11858;51.056;3.712;2023-04-15T03:54:10;10.00;99.90
23371;DHT22;11858;51.056;3.712;2023-04-15T03:56:38;10.00;99.90
23371;DHT22;11858;51.056;3.712;2023-04-15T03:59:04;10.00;99.90
23371;DHT22;11858;51.056;3.712;2023-04-15T04:01:30;10.00;99.90
23371;DHT22;11858;51.056;3.712;2023-04-15T04:03:56;10.00;99.90
23371;DHT22;11858;51.056;3.712;2023-04-15T04:06:22;10.00;99.90
23371;DHT22;11858;51.056;3.712;2023-04-15T04:08:48;10.00;99.90
23371;DHT22;11858;51.056;3.712;2023-04-15T04:11:13;10.10;99.90
23371;DHT22;11858;51.056;3.712;2023-04-15T04:13:39;10.10;99.90
23371;DHT22;11858;51.056;3.712;2023-04-15T04:16:06;10.20;99.90
23371;DHT22;11858;51.056;3.712;2023-04-15T04:18:32;10.20;99.90
23371;DHT22;11858;51.056;3.712;2023-04-15T04:20:58;10.20;99.90
23371;DHT22;11858;51.056;3.712;2023-04-15T04:23:25;10.10;99.90
23371;DHT22;11858;51.056;3.712;2023-04-15T04:25:50;10.20;99.90
23371;DHT22;11858;51.056;3.712;2023-04-15T04:28:17;10.20;99.90
23371;DHT22;11858;51.056;3.712;2023-04-15T04:30:43;10.30;99.90
23371;DHT22;11858;51.056;3.712;2023-04-15T04:33:08;10.30;99.90
23371;DHT22;11858;51.056;3.712;2023-04-15T04:35:34;10.30;99.90
23371;DHT22;11858;51.056;3.712;2023-04-15T04:38:02;10.30;99.90
23371;DHT22;11858;51.056;3.712;2023-04-15T04:40:28;10.20;99.90
23371;DHT22;11858;51.056;3.712;2023-04-15T04:42:54;10.20;99.90
23371;DHT22;11858;51.056;3.712;2023-04-15T04:45:20;10.40;99.90
23371;DHT22;11858;51.056;3.712;2023-04-15T04:47:46;10.40;99.90
23371;DHT22;11858;51.056;3.712;2023-04-15T04:50:12;10.30;99.90
23371;DHT22;11858;51.056;3.712;2023-04-15T04:52:38;10.20;99.90
23371;DHT22;11858;51.056;3.712;2023-04-15T04:55:04;10.20;99.90
23371;DHT22;11858;51.056;3.712;2023-04-15T04:57:30;10.10;99.90
23371;DHT22;11858;51.056;3.712;2023-04-15T04:59:55;10.10;99.90
23371;DHT22;11858;51.056;3.712;2023-04-15T05:02:22;10.20;99.90
23371;DHT22;11858;51.056;3.712;2023-04-15T05:04:48;10.20;99.90
23371;DHT22;11858;51.056;3.712;2023-04-15T05:07:14;10.10;99.90
23371;DHT22;11858;51.056;3.712;2023-04-15T05:09:40;10.20;99.90
23371;DHT22;11858;51.056;3.712;2023-04-15T05:12:06;10.20;99.90
23371;DHT22;11858;51.056;3.712;2023-04-15T05:14:33;10.20;99.90
23371;DHT22;11858;51.056;3.712;2023-04-15T05:16:59;10.20;99.90
23371;DHT22;11858;51.056;3.712;2023-04-15T05:19:25;10.10;99.90
23371;DHT22;11858;51.056;3.712;2023-04-15T05:21:51;10.10;99.90
23371;DHT22;11858;51.056;3.712;2023-04-15T05:24:16;10.10;99.90
23371;DHT22;11858;51.056;3.712;2023-04-15T05:26:42;10.00;99.90
23371;DHT22;11858;51.056;3.712;2023-04-15T05:29:08;10.00;99.90
23371;DHT22;11858;51.056;3.712;2023-04-15T05:31:34;10.00;99.90
23371;DHT22;11858;51.056;3.712;2023-04-15T05:34:00;9.90;99.90
23371;DHT22;11858;51.056;3.712;2023-04-15T05:36:26;9.90;99.90
23371;DHT22;11858;51.056;3.712;2023-04-15T05:38:53;9.90;99.90
23371;DHT22;11858;51.056;3.712;2023-04-15T05:41:18;9.90;99.90
23371;DHT22;11858;51.056;3.712;2023-04-15T05:43:45;9.90;99.90
23371;DHT22;11858;51.056;3.712;2023-04-15T05:46:11;9.90;99.90
23371;DHT22;11858;51.056;3.712;2023-04-15T05:48:37;9.90;99.90
23371;DHT22;11858;51.056;3.712;2023-04-15T05:51:02;9.90;99.90
23371;DHT22;11858;51.056;3.712;2023-04-15T05:53:28;9.90;99.90
23371;DHT22;11858;51.056;3.712;2023-04-15T05:55:54;9.80;99.90
23371;DHT22;11858;51.056;3.712;2023-04-15T05:58:20;9.90;99.90
23371;DHT22;11858;51.056;3.712;2023-04-15T06:00:46;9.90;99.90
23371;DHT22;11858;51.056;3.712;2023-04-15T06:03:12;9.90;99.90
23371;DHT22;11858;51.056;3.712;2023-04-15T06:05:37;9.90;99.90
23371;DHT22;11858;51.056;3.712;2023-04-15T06:08:03;10.00;99.90
23371;DHT22;11858;51.056;3.712;2023-04-15T06:10:29;9.90;99.90
23371;DHT22;11858;51.056;3.712;2023-04-15T06:12:55;10.00;99.90
23371;DHT22;11858;51.056;3.712;2023-04-15T06:15:21;10.10;99.90
23371;DHT22;11858;51.056;3.712;2023-04-15T06:17:47;10.20;99.90
23371;DHT22;11858;51.056;3.712;2023-04-15T06:20:13;10.30;99.90
23371;DHT22;11858;51.056;3.712;2023-04-15T06:22:39;10.40;99.90
23371;DHT22;11858;51.056;3.712;2023-04-15T06:25:06;10.60;99.90
23371;DHT22;11858;51.056;3.712;2023-04-15T06:27:33;10.60;99.90
23371;DHT22;11858;51.056;3.712;2023-04-15T06:29:58;10.70;99.90
23371;DHT22;11858;51.056;3.712;2023-04-15T06:32:24;10.70;99.90
23371;DHT22;11858;51.056;3.712;2023-04-15T06:34:50;10.80;99.90
23371;DHT22;11858;51.056;3.712;2023-04-15T06:37:16;10.80;99.90
23371;DHT22;11858;51.056;3.712;2023-04-15T06:39:42;10.90;99.90
23371;DHT22;11858;51.056;3.712;2023-04-15T06:42:09;11.00;99.90
23371;DHT22;11858;51.056;3.712;2023-04-15T06:44:36;11.10;99.90
23371;DHT22;11858;51.056;3.712;2023-04-15T06:47:02;11.30;99.90
23371;DHT22;11858;51.056;3.712;2023-04-15T06:49:28;11.40;99.90
23371;DHT22;11858;51.056;3.712;2023-04-15T06:51:54;11.40;99.90
23371;DHT22;11858;51.056;3.712;2023-04-15T06:54:20;11.50;99.90
23371;DHT22;11858;51.056;3.712;2023-04-15T06:56:45;11.60;99.90
23371;DHT22;11858;51.056;3.712;2023-04-15T06:59:12;11.80;99.90
23371;DHT22;11858;51.056;3.712;2023-04-15T07:01:40;11.90;99.90
23371;DHT22;11858;51.056;3.712;2023-04-15T07:04:06;12.20;99.90
23371;DHT22;11858;51.056;3.712;2023-04-15T07:06:32;12.30;99.90
23371;DHT22;11858;51.056;3.712;2023-04-15T07:08:58;12.50;99.90
23371;DHT22;11858;51.056;3.712;2023-04-15T07:11:27;12.60;99.90
23371;DHT22;11858;51.056;3.712;2023-04-15T07:13:52;12.80;99.90
23371;DHT22;11858;51.056;3.712;2023-04-15T07:16:18;12.90;99.90
23371;DHT22;11858;51.056;3.712;2023-04-15T07:18:44;13.00;99.90
23371;DHT22;11858;51.056;3.712;2023-04-15T07:21:10;13.10;99.90
23371;DHT22;11858;51.056;3.712;2023-04-15T07:23:36;13.10;99.90
23371;DHT22;11858;51.056;3.712;2023-04-15T07:26:02;13.30;99.90
23371;DHT22;11858;51.056;3.712;2023-04-15T07:28:28;13.50;99.90
23371;DHT22;11858;51.056;3.712;2023-04-15T07:30:54;13.50;99.90
23371;DHT22;11858;51.056;3.712;2023-04-15T07:33:21;13.70;99.90
23371;DHT22;11858;51.056;3.712;2023-04-15T07:35:47;13.90;99.90
23371;DHT22;11858;51.056;3.712;2023-04-15T07:38:13;14.00;99.90
23371;DHT22;11858;51.056;3.712;2023-04-15T07:40:39;14.10;99.90
23371;DHT22;11858;51.056;3.712;2023-04-15T07:43:05;14.20;99.90
23371;DHT22;11858;51.056;3.712;2023-04-15T07:45:31;13.90;99.90
23371;DHT22;11858;51.056;3.712;2023-04-15T07:47:57;13.80;99.90
23371;DHT22;11858;51.056;3.712;2023-04-15T07:50:23;13.70;99.90
23371;DHT22;11858;51.056;3.712;2023-04-15T07:52:49;13.80;99.90
23371;DHT22;11858;51.056;3.712;2023-04-15T07:55:16;13.80;99.90
23371;DHT22;11858;51.056;3.712;2023-04-15T07:57:44;13.60;99.90
23371;DHT22;11858;51.056;3.712;2023-04-15T08:00:12;13.70;99.90
23371;DHT22;11858;51.056;3.712;2023-04-15T08:02:38;13.90;99.90
23371;DHT22;11858;51.056;3.712;2023-04-15T08:05:04;14.00;99.90
23371;DHT22;11858;51.056;3.712;2023-04-15T08:07:30;14.20;99.90
23371;DHT22;11858;51.056;3.712;2023-04-15T08:09:57;14.50;99.90
23371;DHT22;11858;51.056;3.712;2023-04-15T08:12:23;14.70;99.90
23371;DHT22;11858;51.056;3.712;2023-04-15T08:14:50;15.00;99.90
23371;DHT22;11858;51.056;3.712;2023-04-15T08:17:15;15.10;99.90
23371;DHT22;11858;51.056;3.712;2023-04-15T08:19:41;15.50;99.90
23371;DHT22;11858;51.056;3.712;2023-04-15T08:22:07;16.00;99.90
23371;DHT22;11858;51.056;3.712;2023-04-15T08:24:33;16.20;99.90
23371;DHT22;11858;51.056;3.712;2023-04-15T08:26:59;16.10;99.90
23371;DHT22;11858;51.056;3.712;2023-04-15T08:29:26;16.40;99.90
23371;DHT22;11858;51.056;3.712;2023-04-15T08:31:53;17.30;99.90
23371;DHT22;11858;51.056;3.712;2023-04-15T08:34:18;17.90;99.90
23371;DHT22;11858;51.056;3.712;2023-04-15T08:36:44;19.20;99.90
23371;DHT22;11858;51.056;3.712;2023-04-15T08:39:10;20.50;99.90
23371;DHT22;11858;51.056;3.712;2023-04-15T08:44:13;21.30;99.90
23371;DHT22;11858;51.056;3.712;2023-04-15T08:46:40;20.60;99.90
23371;DHT22;11858;51.056;3.712;2023-04-15T08:49:10;20.00;99.90
23371;DHT22;11858;51.056;3.712;2023-04-15T08:51:42;19.80;99.90
23371;DHT22;11858;51.056;3.712;2023-04-15T08:54:08;19.30;99.90
23371;DHT22;11858;51.056;3.712;2023-04-15T08:56:37;18.90;99.90
23371;DHT22;11858;51.056;3.712;2023-04-15T08:59:03;18.70;99.90
23371;DHT22;11858;51.056;3.712;2023-04-15T09:01:31;18.50;99.90
23371;DHT22;11858;51.056;3.712;2023-04-15T09:03:58;17.90;99.90
23371;DHT22;11858;51.056;3.712;2023-04-15T09:06:25;18.00;99.90
23371;DHT22;11858;51.056;3.712;2023-04-15T09:08:50;17.90;99.90
23371;DHT22;11858;51.056;3.712;2023-04-15T09:11:16;17.80;99.90
23371;DHT22;11858;51.056;3.712;2023-04-15T09:13:42;17.60;99.90
23371;DHT22;11858;51.056;3.712;2023-04-15T09:16:08;17.70;99.90
23371;DHT22;11858;51.056;3.712;2023-04-15T09:18:36;17.70;99.90
23371;DHT22;11858;51.056;3.712;2023-04-15T09:23:34;17.50;99.90
23371;DHT22;11858;51.056;3.712;2023-04-15T09:26:01;17.60;99.90
23371;DHT22;11858;51.056;3.712;2023-04-15T09:28:27;17.60;99.90
23371;DHT22;11858;51.056;3.712;2023-04-15T09:31:00;17.70;99.90
23371;DHT22;11858;51.056;3.712;2023-04-15T09:33:28;17.90;99.90
23371;DHT22;11858;51.056;3.712;2023-04-15T09:36:02;18.00;99.90
23371;DHT22;11858;51.056;3.712;2023-04-15T09:38:29;17.90;99.90
23371;DHT22;11858;51.056;3.712;2023-04-15T09:40:56;18.40;99.90
23371;DHT22;11858;51.056;3.712;2023-04-15T09:43:36;18.40;99.90
23371;DHT22;11858;51.056;3.712;2023-04-15T09:46:02;18.80;99.90
23371;DHT22;11858;51.056;3.712;2023-04-15T09:48:28;19.20;99.90
23371;DHT22;11858;51.056;3.712;2023-04-15T09:50:59;19.20;99.90
23371;DHT22;11858;51.056;3.712;2023-04-15T09:53:26;19.40;99.90
23371;DHT22;11858;51.056;3.712;2023-04-15T09:55:57;19.80;99.90
23371;DHT22;11858;51.056;3.712;2023-04-15T09:58:31;19.70;99.90
23371;DHT22;11858;51.056;3.712;2023-04-15T10:00:59;20.00;99.90
23371;DHT22;11858;51.056;3.712;2023-04-15T10:03:33;20.10;99.90
23371;DHT22;11858;51.056;3.712;2023-04-15T10:06:02;20.30;99.90
23371;DHT22;11858;51.056;3.712;2023-04-15T10:08:32;21.30;99.90
23371;DHT22;11858;51.056;3.712;2023-04-15T10:10:58;21.70;99.90
23371;DHT22;11858;51.056;3.712;2023-04-15T10:13:26;22.30;99.90
23371;DHT22;11858;51.056;3.712;2023-04-15T10:16:04;22.10;99.90
23371;DHT22;11858;51.056;3.712;2023-04-15T10:18:53;22.70;99.90
23371;DHT22;11858;51.056;3.712;2023-04-15T10:21:20;23.00;99.90
23371;DHT22;11858;51.056;3.712;2023-04-15T10:23:47;24.00;99.90
23371;DHT22;11858;51.056;3.712;2023-04-15T10:26:13;24.90;99.90
23371;DHT22;11858;51.056;3.712;2023-04-15T10:28:40;25.50;99.90
23371;DHT22;11858;51.056;3.712;2023-04-15T10:31:06;26.50;99.90
23371;DHT22;11858;51.056;3.712;2023-04-15T10:33:33;26.90;99.90
23371;DHT22;11858;51.056;3.712;2023-04-15T10:36:00;26.70;99.90
23371;DHT22;11858;51.056;3.712;2023-04-15T10:41:23;25.80;99.90
23371;DHT22;11858;51.056;3.712;2023-04-15T10:44:00;25.60;98.80
23371;DHT22;11858;51.056;3.712;2023-04-15T10:48:06;25.90;96.90
23371;DHT22;11858;51.056;3.712;2023-04-15T10:50:33;26.20;96.50
23371;DHT22;11858;51.056;3.712;2023-04-15T10:53:02;26.60;96.50
23371;DHT22;11858;51.056;3.712;2023-04-15T10:55:32;26.80;96.30
23371;DHT22;11858;51.056;3.712;2023-04-15T10:57:59;26.50;95.20
23371;DHT22;11858;51.056;3.712;2023-04-15T11:00:30;26.80;92.30
23371;DHT22;11858;51.056;3.712;2023-04-15T11:03:07;27.00;91.60
23371;DHT22;11858;51.056;3.712;2023-04-15T11:05:50;27.20;90.00
23371;DHT22;11858;51.056;3.712;2023-04-15T11:08:17;27.20;88.40
23371;DHT22;11858;51.056;3.712;2023-04-15T11:15:39;27.50;85.90
23371;DHT22;11858;51.056;3.712;2023-04-15T11:18:18;27.60;83.00
23371;DHT22;11858;51.056;3.712;2023-04-15T11:20:52;27.50;78.60
23371;DHT22;11858;51.056;3.712;2023-04-15T11:23:41;27.30;74.20
23371;DHT22;11858;51.056;3.712;2023-04-15T11:26:13;26.90;71.50
23371;DHT22;11858;51.056;3.712;2023-04-15T11:28:44;26.70;73.50
23371;DHT22;11858;51.056;3.712;2023-04-15T11:33:43;27.20;79.60
23371;DHT22;11858;51.056;3.712;2023-04-15T11:36:09;27.00;74.40
23371;DHT22;11858;51.056;3.712;2023-04-15T11:38:35;26.90;75.60
23371;DHT22;11858;51.056;3.712;2023-04-15T11:41:02;26.80;75.10
23371;DHT22;11858;51.056;3.712;2023-04-15T11:43:30;26.90;69.60
23371;DHT22;11858;51.056;3.712;2023-04-15T11:45:58;27.10;66.30
23371;DHT22;11858;51.056;3.712;2023-04-15T11:48:35;27.30;67.90
23371;DHT22;11858;51.056;3.712;2023-04-15T11:51:19;26.90;70.00
23371;DHT22;11858;51.056;3.712;2023-04-15T11:53:51;26.50;69.60
23371;DHT22;11858;51.056;3.712;2023-04-15T11:56:22;26.90;67.80
23371;DHT22;11858;51.056;3.712;2023-04-15T11:58:52;26.30;70.00
23371;DHT22;11858;51.056;3.712;2023-04-15T12:01:18;26.00;72.30
23371;DHT22;11858;51.056;3.712;2023-04-15T12:03:45;26.50;71.50
23371;DHT22;11858;51.056;3.712;2023-04-15T12:06:30;26.70;66.20
23371;DHT22;11858;51.056;3.712;2023-04-15T12:13:57;27.20;68.40
23371;DHT22;11858;51.056;3.712;2023-04-15T12:16:26;27.10;71.00
23371;DHT22;11858;51.056;3.712;2023-04-15T12:18:53;27.80;69.20
23371;DHT22;11858;51.056;3.712;2023-04-15T12:21:26;27.90;68.00
23371;DHT22;11858;51.056;3.712;2023-04-15T12:23:56;27.60;70.30
23371;DHT22;11858;51.056;3.712;2023-04-15T12:26:26;27.90;65.00
23371;DHT22;11858;51.056;3.712;2023-04-15T12:29:06;28.00;65.90
23371;DHT22;11858;51.056;3.712;2023-04-15T12:31:36;27.90;66.60
23371;DHT22;11858;51.056;3.712;2023-04-15T12:34:10;27.80;66.90
23371;DHT22;11858;51.056;3.712;2023-04-15T12:36:36;27.40;65.00
23371;DHT22;11858;51.056;3.712;2023-04-15T12:39:03;27.50;64.80
23371;DHT22;11858;51.056;3.712;2023-04-15T12:41:29;27.10;67.40
23371;DHT22;11858;51.056;3.712;2023-04-15T12:43:55;27.50;66.10
23371;DHT22;11858;51.056;3.712;2023-04-15T12:46:21;27.70;65.30
23371;DHT22;11858;51.056;3.712;2023-04-15T12:48:46;27.90;65.50
23371;DHT22;11858;51.056;3.712;2023-04-15T12:51:13;27.70;65.20
23371;DHT22;11858;51.056;3.712;2023-04-15T12:53:38;27.70;63.80
23371;DHT22;11858;51.056;3.712;2023-04-15T12:56:04;27.10;63.80
23371;DHT22;11858;51.056;3.712;2023-04-15T12:58:31;27.10;63.20
23371;DHT22;11858;51.056;3.712;2023-04-15T13:00:57;27.30;63.60
23371;DHT22;11858;51.056;3.712;2023-04-15T13:03:22;27.50;65.50
23371;DHT22;11858;51.056;3.712;2023-04-15T13:05:48;27.60;64.90
23371;DHT22;11858;51.056;3.712;2023-04-15T13:08:14;27.50;65.10
23371;DHT22;11858;51.056;3.712;2023-04-15T13:10:40;27.50;65.10
23371;DHT22;11858;51.056;3.712;2023-04-15T13:13:07;27.70;64.40
23371;DHT22;11858;51.056;3.712;2023-04-15T13:15:33;27.70;63.60
23371;DHT22;11858;51.056;3.712;2023-04-15T13:17:59;28.20;61.90
23371;DHT22;11858;51.056;3.712;2023-04-15T13:20:24;27.60;60.90
23371;DHT22;11858;51.056;3.712;2023-04-15T13:22:52;27.70;61.20
23371;DHT22;11858;51.056;3.712;2023-04-15T13:25:22;27.60;61.70
23371;DHT22;11858;51.056;3.712;2023-04-15T13:27:49;27.20;61.90
23371;DHT22;11858;51.056;3.712;2023-04-15T13:30:14;27.50;64.30
23371;DHT22;11858;51.056;3.712;2023-04-15T13:32:40;27.10;62.60
23371;DHT22;11858;51.056;3.712;2023-04-15T13:35:06;27.60;61.90
23371;DHT22;11858;51.056;3.712;2023-04-15T13:37:32;28.10;61.80
23371;DHT22;11858;51.056;3.712;2023-04-15T13:39:57;28.00;59.80
23371;DHT22;11858;51.056;3.712;2023-04-15T13:42:23;28.00;60.60
23371;DHT22;11858;51.056;3.712;2023-04-15T13:44:50;28.20;62.80
23371;DHT22;11858;51.056;3.712;2023-04-15T13:47:16;28.10;64.30
23371;DHT22;11858;51.056;3.712;2023-04-15T13:49:43;27.80;69.80
23371;DHT22;11858;51.056;3.712;2023-04-15T13:52:09;27.80;70.30
23371;DHT22;11858;51.056;3.712;2023-04-15T13:54:35;28.00;71.40
23371;DHT22;11858;51.056;3.712;2023-04-15T13:57:01;27.60;73.10
23371;DHT22;11858;51.056;3.712;2023-04-15T13:59:27;27.50;72.60
23371;DHT22;11858;51.056;3.712;2023-04-15T14:01:52;27.10;72.10
23371;DHT22;11858;51.056;3.712;2023-04-15T14:04:18;27.70;73.00
23371;DHT22;11858;51.056;3.712;2023-04-15T14:06:44;27.20;75.60
23371;DHT22;11858;51.056;3.712;2023-04-15T14:09:09;27.60;74.00
23371;DHT22;11858;51.056;3.712;2023-04-15T14:11:37;27.60;71.90
23371;DHT22;11858;51.056;3.712;2023-04-15T14:14:03;28.60;70.70
23371;DHT22;11858;51.056;3.712;2023-04-15T14:16:31;27.50;72.70
23371;DHT22;11858;51.056;3.712;2023-04-15T14:18:57;27.10;74.50
23371;DHT22;11858;51.056;3.712;2023-04-15T14:21:23;27.10;74.60
23371;DHT22;11858;51.056;3.712;2023-04-15T14:23:49;26.30;75.80
23371;DHT22;11858;51.056;3.712;2023-04-15T14:26:14;26.90;75.10
23371;DHT22;11858;51.056;3.712;2023-04-15T14:28:40;26.70;75.30
23371;DHT22;11858;51.056;3.712;2023-04-15T14:31:07;26.60;77.00
23371;DHT22;11858;51.056;3.712;2023-04-15T14:33:32;26.10;77.40
23371;DHT22;11858;51.056;3.712;2023-04-15T14:35:58;25.70;78.10
23371;DHT22;11858;51.056;3.712;2023-04-15T14:38:24;26.30;76.80
23371;DHT22;11858;51.056;3.712;2023-04-15T14:40:50;26.50;77.50
23371;DHT22;11858;51.056;3.712;2023-04-15T14:43:15;27.50;76.40
23371;DHT22;11858;51.056;3.712;2023-04-15T14:45:41;27.00;73.90
23371;DHT22;11858;51.056;3.712;2023-04-15T14:48:08;27.20;74.80
23371;DHT22;11858;51.056;3.712;2023-04-15T14:50:35;27.20;73.00
23371;DHT22;11858;51.056;3.712;2023-04-15T14:53:00;26.80;73.30
23371;DHT22;11858;51.056;3.712;2023-04-15T14:55:26;26.30;73.90
23371;DHT22;11858;51.056;3.712;2023-04-15T14:57:52;26.20;73.80
23371;DHT22;11858;51.056;3.712;2023-04-15T15:00:17;26.00;75.00
23371;DHT22;11858;51.056;3.712;2023-04-15T15:02:43;25.80;76.10
23371;DHT22;11858;51.056;3.712;2023-04-15T15:05:09;26.40;74.70
23371;DHT22;11858;51.056;3.712;2023-04-15T15:07:37;26.20;73.00
23371;DHT22;11858;51.056;3.712;2023-04-15T15:10:03;26.00;73.00
23371;DHT22;11858;51.056;3.712;2023-04-15T15:12:29;25.90;73.40
23371;DHT22;11858;51.056;3.712;2023-04-15T15:14:55;25.70;72.30
23371;DHT22;11858;51.056;3.712;2023-04-15T15:17:20;25.10;71.60
23371;DHT22;11858;51.056;3.712;2023-04-15T15:19:46;25.00;70.50
23371;DHT22;11858;51.056;3.712;2023-04-15T15:22:12;25.30;68.40
23371;DHT22;11858;51.056;3.712;2023-04-15T15:24:37;25.40;64.40
23371;DHT22;11858;51.056;3.712;2023-04-15T15:27:03;25.50;64.00
23371;DHT22;11858;51.056;3.712;2023-04-15T15:29:29;25.50;63.50
23371;DHT22;11858;51.056;3.712;2023-04-15T15:31:55;25.20;64.80
23371;DHT22;11858;51.056;3.712;2023-04-15T15:34:20;25.20;66.20
23371;DHT22;11858;51.056;3.712;2023-04-15T15:36:47;24.80;66.20
23371;DHT22;11858;51.056;3.712;2023-04-15T15:39:13;25.10;67.40
23371;DHT22;11858;51.056;3.712;2023-04-15T15:41:38;25.30;68.80
23371;DHT22;11858;51.056;3.712;2023-04-15T15:44:04;25.00;69.60
23371;DHT22;11858;51.056;3.712;2023-04-15T15:46:29;25.40;69.50
23371;DHT22;11858;51.056;3.712;2023-04-15T15:48:56;25.20;69.40
23371;DHT22;11858;51.056;3.712;2023-04-15T15:51:22;24.50;70.30